• Join FlightAware (Why Join?)
  • Login
  • US Flag 
08:56AM EST


 

Airport Tracker/Info


-or-


 

Live Flight TrackerFlight Track Log ✈ EMD24 ✈ 27-Jun-2013 ✈ KGLD - 8V7

Flight Track Log - Related Links

Times and Time Zones

All times are in EDT time to prevent confusion due to time zone crossing. See the EMD24 flight status page for this flight to view local times or setup timezone preferences in your user account.

Time Position Orientation Groundspeed Altitude Reporting Facility
EDT Latitude Longitude Course Direction KTS MPH feet Rate Location/Type
09:35AM 39.1764 -101.7483 202° Southwest 168 193 8,400  Level Denver Center
09:36AM 39.1353 -101.7703 202° Southwest 169 194 9,200 900 Climbing Denver Center
09:37AM 39.0858 -101.7956 202° Southwest 171 197 10,300 1,020 Climbing Denver Center
09:38AM 39.0447 -101.8200 205° Southwest 170 196 11,300 900 Climbing Denver Center
09:39AM 39.0017 -101.8431 203° Southwest 174 200 12,200 900 Climbing Denver Center
09:40AM 38.9517 -101.8708 203° Southwest 176 203 13,200 840 Climbing Denver Center
09:41AM 38.9072 -101.8969 205° Southwest 182 209 14,000 360 Climbing Denver Center
09:42AM 38.8472 -101.9286 202° Southwest 211 243 14,000  Level Denver Center
09:43AM 38.7908 -101.9544 200° South 223 257 14,000  Level Denver Center
09:44AM 38.7339 -101.9844 202° Southwest 230 265 14,000  Level Denver Center
09:45AM 38.6672 -102.0172 201° Southwest 229 264 14,000  Level Denver Center
09:46AM 38.6097 -102.0483 203° Southwest 234 269 14,000  Level Denver Center
09:47AM 38.5447 -102.0825 202° Southwest 229 264 14,000  Level Denver Center
09:48AM 38.4872 -102.1142 203° Southwest 234 269 14,000  Level Denver Center
09:49AM 38.4317 -102.1431 202° Southwest 228 262 14,000  Level Denver Center
09:51AM 38.3647 -102.1761 201° Southwest 229 264 14,000  Level Denver Center
09:52AM 38.3083 -102.2050 202° Southwest 228 262 14,000  Level Denver Center
09:53AM 38.2417 -102.2394 202° Southwest 230 265 14,000  Level Denver Center
09:54AM 38.1858 -102.2686 202° Southwest 228 262 14,000  Level Denver Center
09:55AM 38.1192 -102.3022 202° Southwest 230 265 14,000  Level Denver Center
09:56AM 38.0722 -102.3269 203° Southwest 229 264 14,000  Level Denver Center
09:57AM 38.0067 -102.3606 202° Southwest 228 262 14,100 -360 Climbing Denver Center
09:58AM 37.9403 -102.3950 202° Southwest 231 266 13,300 -1,080 Descending Denver Center
09:59AM 37.8653 -102.4331 202° Southwest 251 289 11,800 -1,320 Descending Denver Center
10:00AM 37.7933 -102.4700 202° Southwest 252 290 10,700 -1,080 Descending Denver Center
10:01AM 37.7253 -102.5031 201° Southwest 247 284 9,700 -1,260 Descending Denver Center
10:02AM 37.6661 -102.5294 199° South 240 276 8,200 -1,500 Descending Denver Center